createdAt,value
2022-12-11T00:00:41.232Z,23.00
2022-12-11T00:03:15.435Z,23.00
2022-12-11T00:05:43.888Z,23.10
2022-12-11T00:08:11.946Z,23.10
2022-12-11T00:10:39.630Z,23.10
2022-12-11T00:13:07.191Z,23.10
2022-12-11T00:15:35.499Z,23.10
2022-12-11T00:18:03.289Z,23.10
2022-12-11T00:20:30.787Z,23.10
2022-12-11T00:22:59.096Z,23.10
2022-12-11T00:25:28.891Z,23.20
2022-12-11T00:27:57.201Z,23.20
2022-12-11T00:30:25.037Z,23.20
2022-12-11T00:32:52.637Z,23.20
2022-12-11T00:35:20.155Z,23.20
2022-12-11T00:37:47.725Z,23.20
2022-12-11T00:40:16.275Z,23.20
2022-12-11T00:42:44.841Z,23.20
2022-12-11T00:45:12.568Z,23.30
2022-12-11T00:47:40.565Z,23.30
2022-12-11T00:50:08.454Z,23.30
2022-12-11T00:52:36.213Z,23.40
2022-12-11T00:55:03.846Z,23.40
2022-12-11T00:57:31.611Z,23.40
2022-12-11T01:00:00.235Z,23.50
2022-12-11T01:02:27.975Z,23.50
2022-12-11T01:04:55.768Z,23.60
2022-12-11T01:07:24.249Z,23.60
2022-12-11T01:10:11.004Z,23.60
2022-12-11T01:12:38.926Z,23.60
2022-12-11T01:15:06.669Z,23.60
2022-12-11T01:17:34.755Z,23.70
2022-12-11T01:20:05.332Z,23.60
2022-12-11T01:22:34.167Z,23.70
2022-12-11T01:25:01.777Z,23.70
2022-12-11T01:27:29.505Z,23.70
2022-12-11T01:29:58.190Z,23.70
2022-12-11T01:32:26.674Z,23.70
2022-12-11T01:34:54.187Z,23.80
2022-12-11T01:37:22.627Z,23.80
2022-12-11T01:39:50.423Z,23.90
2022-12-11T01:42:19.538Z,23.90
2022-12-11T01:44:47.302Z,23.90
2022-12-11T01:47:14.936Z,24.00
2022-12-11T01:49:43.115Z,24.00
2022-12-11T01:52:17.425Z,24.00
2022-12-11T01:54:45.254Z,24.10
2022-12-11T01:59:56.584Z,24.20
2022-12-11T02:02:29.550Z,24.20
2022-12-11T02:04:58.741Z,24.30
2022-12-11T02:07:26.631Z,24.30
2022-12-11T02:09:56.848Z,24.40
2022-12-11T02:12:24.777Z,24.40
2022-12-11T02:14:52.278Z,24.50
2022-12-11T02:17:24.895Z,24.50
2022-12-11T02:19:58.742Z,24.50
2022-12-11T02:22:29.401Z,24.50
2022-12-11T02:25:23.013Z,24.50
2022-12-11T02:28:09.146Z,24.50
2022-12-11T02:30:41.144Z,24.60
2022-12-11T02:33:12.347Z,24.60
2022-12-11T02:35:41.822Z,24.60
2022-12-11T02:38:22.278Z,24.70
2022-12-11T02:40:52.645Z,24.70
2022-12-11T02:43:21.053Z,24.70
2022-12-11T02:45:49.430Z,24.70
2022-12-11T02:48:18.157Z,24.70
2022-12-11T02:50:48.450Z,24.70
2022-12-11T02:53:17.991Z,24.80
2022-12-11T02:55:47.561Z,24.80
2022-12-11T02:58:18.410Z,24.90
2022-12-11T03:00:47.651Z,24.90
2022-12-11T03:03:15.544Z,24.90
2022-12-11T03:05:44.049Z,24.90
2022-12-11T03:08:11.668Z,25.00
2022-12-11T03:10:39.764Z,25.00
2022-12-11T03:13:07.644Z,25.00
2022-12-11T03:15:41.686Z,25.00
2022-12-11T03:18:13.360Z,25.00
2022-12-11T03:20:44.712Z,25.00
2022-12-11T03:23:22.572Z,25.10
2022-12-11T03:25:56.128Z,25.10
2022-12-11T03:28:48.233Z,25.20
2022-12-11T03:31:24.828Z,25.20
2022-12-11T03:33:55.089Z,25.30
2022-12-11T03:36:34.451Z,25.30
2022-12-11T03:39:07.871Z,25.40
2022-12-11T03:41:39.174Z,25.40
2022-12-11T03:44:12.233Z,25.40
2022-12-11T03:46:40.911Z,25.50
2022-12-11T03:49:11.411Z,25.50
2022-12-11T03:51:39.488Z,25.50
2022-12-11T03:54:07.452Z,25.50
2022-12-11T03:56:36.398Z,25.50
2022-12-11T03:59:03.978Z,25.50
2022-12-11T04:01:31.561Z,25.60
2022-12-11T04:03:59.205Z,25.60
2022-12-11T04:06:27.636Z,25.60
2022-12-11T04:08:55.147Z,25.60
2022-12-11T04:11:35.466Z,25.70
2022-12-11T04:14:28.489Z,25.70
2022-12-11T04:16:56.543Z,25.80
2022-12-11T04:19:43.152Z,25.80
2022-12-11T04:22:30.193Z,25.80
2022-12-11T04:24:57.788Z,25.90
2022-12-11T04:27:44.086Z,25.90
2022-12-11T04:30:14.671Z,26.00
2022-12-11T04:32:43.412Z,26.10
2022-12-11T04:35:11.777Z,26.20
2022-12-11T04:37:39.802Z,26.20
2022-12-11T04:40:08.575Z,26.20
2022-12-11T04:42:36.220Z,26.20
2022-12-11T04:45:04.324Z,26.30
2022-12-11T04:47:31.890Z,26.30
2022-12-11T04:49:59.478Z,26.30
2022-12-11T04:52:27.112Z,26.40
2022-12-11T04:54:54.980Z,26.40
2022-12-11T04:57:22.701Z,26.50
2022-12-11T04:59:50.499Z,26.50
2022-12-11T05:02:18.659Z,26.50
2022-12-11T05:04:47.085Z,26.50
2022-12-11T05:07:15.004Z,26.60
2022-12-11T05:09:42.589Z,26.60
2022-12-11T05:12:10.209Z,26.50
2022-12-11T05:17:24.887Z,26.60
2022-12-11T05:19:52.646Z,26.70
2022-12-11T05:22:20.314Z,26.70
2022-12-11T05:24:47.897Z,26.80
2022-12-11T05:27:15.550Z,26.80
2022-12-11T05:29:43.350Z,26.80
2022-12-11T05:32:11.007Z,26.90
2022-12-11T05:34:38.592Z,26.90
2022-12-11T05:37:06.361Z,27.00
2022-12-11T05:39:34.825Z,27.00
2022-12-11T05:42:03.459Z,27.00
2022-12-11T05:44:31.245Z,27.00
2022-12-11T05:46:58.935Z,27.00
2022-12-11T05:52:01.969Z,27.10
2022-12-11T05:54:30.308Z,27.20
2022-12-11T05:56:58.698Z,27.20
2022-12-11T05:59:26.606Z,27.30
2022-12-11T06:01:54.162Z,27.30
2022-12-11T06:04:24.596Z,27.40
2022-12-11T06:06:54.853Z,27.40
2022-12-11T06:09:22.543Z,27.40
2022-12-11T06:11:50.283Z,27.40
2022-12-11T06:14:18.133Z,27.40
2022-12-11T06:16:47.196Z,27.40
2022-12-11T06:19:15.437Z,27.50
2022-12-11T06:21:43.053Z,27.50
2022-12-11T06:24:11.472Z,27.60
2022-12-11T06:26:39.091Z,27.60
2022-12-11T06:29:12.953Z,27.70
2022-12-11T06:31:40.944Z,27.90
2022-12-11T06:34:09.965Z,27.90
2022-12-11T06:36:37.485Z,28.00
2022-12-11T06:39:06.156Z,28.00
2022-12-11T06:41:33.778Z,28.00
2022-12-11T06:44:01.397Z,28.00
2022-12-11T06:46:29.841Z,28.00
2022-12-11T06:49:01.063Z,28.10
2022-12-11T06:51:29.529Z,28.10
2022-12-11T06:53:57.966Z,28.10
2022-12-11T06:56:25.777Z,28.10
2022-12-11T06:58:54.391Z,28.20
2022-12-11T07:01:26.645Z,28.20
2022-12-11T07:03:54.945Z,28.20
2022-12-11T07:06:22.857Z,28.30
2022-12-11T07:08:52.035Z,28.30
2022-12-11T07:11:20.183Z,28.30
2022-12-11T07:13:48.092Z,28.40
2022-12-11T07:16:16.922Z,28.50
2022-12-11T07:18:46.921Z,28.40
2022-12-11T07:21:14.537Z,28.50
2022-12-11T07:23:42.238Z,28.50
2022-12-11T07:26:12.153Z,28.50
2022-12-11T07:28:43.551Z,28.50
2022-12-11T07:31:12.809Z,28.50
2022-12-11T07:33:40.770Z,28.50
2022-12-11T07:36:12.420Z,28.50
2022-12-11T07:38:42.210Z,28.40
2022-12-11T07:41:11.913Z,28.40
2022-12-11T07:43:39.778Z,28.40
2022-12-11T07:46:18.366Z,28.40
2022-12-11T07:48:47.403Z,28.30
2022-12-11T07:51:18.400Z,28.30
2022-12-11T07:53:48.484Z,28.30
2022-12-11T07:56:16.520Z,28.30
2022-12-11T07:58:44.096Z,28.30
2022-12-11T08:01:13.730Z,28.30
2022-12-11T08:03:41.994Z,28.30
2022-12-11T08:06:10.548Z,28.30
2022-12-11T08:08:39.119Z,28.30
2022-12-11T08:11:08.347Z,28.30
2022-12-11T08:13:36.316Z,28.30
2022-12-11T08:16:05.509Z,28.30
2022-12-11T08:18:34.480Z,28.30
2022-12-11T08:21:08.985Z,28.30
2022-12-11T08:23:36.614Z,28.30
2022-12-11T08:26:05.072Z,28.40
2022-12-11T08:28:33.526Z,28.40
2022-12-11T08:31:01.941Z,28.40
2022-12-11T08:33:29.526Z,28.40
2022-12-11T08:35:57.060Z,28.40
2022-12-11T08:38:25.745Z,28.40
2022-12-11T08:40:54.046Z,28.40
2022-12-11T08:43:22.376Z,28.40
2022-12-11T08:45:53.175Z,28.40
2022-12-11T08:48:20.851Z,28.40
2022-12-11T08:50:49.218Z,28.40
2022-12-11T08:53:16.842Z,28.40
2022-12-11T08:55:44.466Z,28.40
2022-12-11T08:58:12.933Z,28.40
2022-12-11T09:00:40.576Z,28.40
2022-12-11T09:03:12.806Z,28.40
2022-12-11T09:05:41.191Z,28.40
2022-12-11T09:08:08.907Z,28.40
2022-12-11T09:10:37.327Z,28.40
2022-12-11T09:13:05.311Z,28.50
2022-12-11T09:15:33.009Z,28.50
2022-12-11T09:18:01.421Z,28.50
2022-12-11T09:20:28.955Z,28.50
2022-12-11T09:22:57.063Z,28.50
2022-12-11T09:25:24.568Z,28.50
2022-12-11T09:27:52.401Z,28.40
2022-12-11T09:30:20.377Z,28.40
2022-12-11T09:32:47.960Z,28.40
2022-12-11T09:35:15.505Z,28.30
2022-12-11T09:37:43.239Z,28.30
2022-12-11T09:40:12.936Z,28.30
2022-12-11T09:42:40.616Z,28.30
2022-12-11T09:45:14.703Z,28.30
2022-12-11T09:47:45.374Z,28.20
2022-12-11T09:50:18.538Z,28.20
2022-12-11T09:52:48.817Z,28.20
2022-12-11T09:55:21.121Z,28.20
2022-12-11T09:57:51.908Z,28.10
2022-12-11T10:00:28.691Z,28.10
2022-12-11T10:02:57.990Z,28.10
2022-12-11T10:05:47.926Z,28.00
2022-12-11T10:08:53.573Z,28.00
2022-12-11T10:11:41.031Z,28.00
2022-12-11T10:14:14.924Z,27.90
2022-12-11T10:16:50.385Z,27.80
2022-12-11T10:19:22.335Z,27.80
2022-12-11T10:21:51.589Z,27.80
2022-12-11T10:24:59.319Z,27.70
2022-12-11T10:27:16.852Z,27.70
2022-12-11T10:29:49.108Z,27.60
2022-12-11T10:32:22.999Z,27.60
2022-12-11T10:34:56.460Z,27.50
2022-12-11T10:37:25.340Z,27.40
2022-12-11T10:39:54.516Z,27.40
2022-12-11T10:42:25.973Z,27.30
2022-12-11T10:44:59.660Z,27.30
2022-12-11T10:47:28.225Z,27.20
2022-12-11T10:49:59.122Z,27.10
2022-12-11T10:52:29.522Z,27.00
2022-12-11T10:55:03.028Z,27.00
2022-12-11T10:57:34.591Z,26.90
2022-12-11T11:00:03.201Z,26.90
2022-12-11T11:02:39.268Z,26.80
2022-12-11T11:05:18.418Z,26.80
2022-12-11T11:07:46.014Z,26.70
2022-12-11T11:10:14.303Z,26.70
2022-12-11T11:12:43.277Z,26.70
2022-12-11T11:15:15.558Z,26.70
2022-12-11T11:17:55.839Z,26.70
2022-12-11T11:20:25.787Z,26.70
2022-12-11T11:22:56.029Z,26.60
2022-12-11T11:25:25.163Z,26.60
2022-12-11T11:27:55.728Z,26.60
2022-12-11T11:30:27.771Z,26.50
2022-12-11T11:32:57.280Z,26.40
2022-12-11T11:35:26.447Z,26.40
2022-12-11T11:37:56.581Z,26.30
2022-12-11T11:40:32.242Z,26.30
2022-12-11T11:43:16.922Z,26.30
2022-12-11T11:45:54.641Z,26.30
2022-12-11T11:48:37.113Z,26.20
2022-12-11T11:51:13.820Z,26.20
2022-12-11T11:53:42.760Z,26.10
2022-12-11T11:56:45.768Z,26.10
2022-12-11T11:59:28.628Z,26.10
2022-12-11T12:01:57.070Z,26.10
2022-12-11T12:04:26.253Z,26.00
2022-12-11T12:07:04.005Z,26.00
2022-12-11T12:09:39.788Z,26.00
2022-12-11T12:12:18.246Z,26.00
2022-12-11T12:14:59.164Z,25.90
2022-12-11T12:17:26.814Z,25.90
2022-12-11T12:20:00.511Z,25.90
2022-12-11T12:22:34.136Z,25.90
2022-12-11T12:25:22.597Z,25.80
2022-12-11T12:28:08.656Z,25.80
2022-12-11T12:30:40.880Z,25.80
2022-12-11T12:33:17.692Z,25.80
2022-12-11T12:35:58.826Z,25.80
2022-12-11T12:38:44.131Z,25.80
2022-12-11T12:41:24.598Z,25.80
2022-12-11T12:44:01.636Z,25.80
2022-12-11T12:46:34.816Z,25.70
2022-12-11T12:49:03.596Z,25.80
2022-12-11T12:51:32.915Z,25.70
2022-12-11T12:54:06.575Z,25.70
2022-12-11T12:56:38.436Z,25.70
2022-12-11T12:59:18.591Z,25.70
2022-12-11T13:01:53.368Z,25.70
2022-12-11T13:04:56.100Z,25.70
2022-12-11T13:07:35.570Z,25.70
2022-12-11T13:10:09.329Z,25.70
2022-12-11T13:12:47.928Z,25.80
2022-12-11T13:15:25.812Z,25.80
2022-12-11T13:17:55.047Z,25.80
2022-12-11T13:20:24.769Z,25.80
2022-12-11T13:22:58.011Z,25.80
2022-12-11T13:25:31.885Z,25.80
2022-12-11T13:28:19.723Z,25.80
2022-12-11T13:30:57.360Z,25.80
2022-12-11T13:33:26.941Z,25.80
2022-12-11T13:36:24.908Z,25.70
2022-12-11T13:38:55.491Z,25.60
2022-12-11T13:41:23.967Z,25.60
2022-12-11T13:43:53.518Z,25.60
2022-12-11T13:46:29.552Z,25.60
2022-12-11T13:49:01.874Z,25.60
2022-12-11T13:51:31.888Z,25.60
2022-12-11T13:54:05.938Z,25.60
2022-12-11T13:56:33.995Z,25.70
2022-12-11T13:59:02.798Z,25.60
2022-12-11T14:01:33.859Z,25.60
2022-12-11T14:04:01.811Z,25.60
2022-12-11T14:06:30.085Z,25.60
2022-12-11T14:08:59.740Z,25.60
2022-12-11T14:11:38.334Z,25.60
2022-12-11T14:14:08.891Z,25.60
2022-12-11T14:16:37.266Z,25.60
2022-12-11T14:19:06.572Z,25.60
2022-12-11T14:21:34.338Z,25.60
2022-12-11T14:24:06.945Z,25.60
2022-12-11T14:26:35.748Z,25.60
2022-12-11T14:29:03.330Z,25.50
2022-12-11T14:31:34.801Z,25.50
2022-12-11T14:34:22.375Z,25.50
2022-12-11T14:36:50.076Z,25.40
2022-12-11T14:39:20.795Z,25.40
2022-12-11T14:42:00.511Z,25.40
2022-12-11T14:44:31.285Z,25.40
2022-12-11T14:47:01.244Z,25.40
2022-12-11T14:49:47.086Z,25.40
2022-12-11T14:52:18.335Z,25.30
2022-12-11T14:54:48.348Z,25.30
2022-12-11T14:57:19.597Z,25.30
2022-12-11T14:59:49.302Z,25.30
2022-12-11T15:02:23.148Z,25.30
2022-12-11T15:05:09.208Z,25.30
2022-12-11T15:07:37.161Z,25.30
2022-12-11T15:10:05.381Z,25.30
2022-12-11T15:12:33.580Z,25.30
2022-12-11T15:15:03.700Z,25.30
2022-12-11T15:17:32.596Z,25.20
2022-12-11T15:20:10.846Z,25.20
2022-12-11T15:22:39.502Z,25.20
2022-12-11T15:25:07.249Z,25.20
2022-12-11T15:27:39.056Z,25.20
2022-12-11T15:30:15.913Z,25.20
2022-12-11T15:32:44.979Z,25.20
2022-12-11T15:35:26.462Z,25.20
2022-12-11T15:37:55.794Z,25.20
2022-12-11T15:40:23.824Z,25.20
2022-12-11T15:42:52.178Z,25.20
2022-12-11T15:45:21.865Z,25.20
2022-12-11T15:47:50.772Z,25.20
2022-12-11T15:50:23.363Z,25.10
2022-12-11T15:52:51.907Z,25.10
2022-12-11T15:55:20.554Z,25.10
2022-12-11T15:57:52.922Z,25.10
2022-12-11T16:00:21.318Z,25.10
2022-12-11T16:02:49.558Z,25.00
2022-12-11T16:05:17.142Z,25.10
2022-12-11T16:07:45.200Z,25.00
2022-12-11T16:10:17.121Z,25.00
2022-12-11T16:12:45.565Z,25.00
2022-12-11T16:15:19.935Z,25.00
2022-12-11T16:17:50.604Z,25.00
2022-12-11T16:20:18.419Z,25.00
2022-12-11T16:22:46.843Z,25.00
2022-12-11T16:25:14.731Z,24.90
2022-12-11T16:27:42.502Z,24.90
2022-12-11T16:30:12.158Z,24.90
2022-12-11T16:32:39.713Z,24.90
2022-12-11T16:35:08.174Z,24.90
2022-12-11T16:37:35.669Z,24.80
2022-12-11T16:40:04.052Z,24.80
2022-12-11T16:42:31.623Z,24.80
2022-12-11T16:45:10.139Z,24.80
2022-12-11T16:47:38.812Z,24.70
2022-12-11T16:50:06.584Z,24.70
2022-12-11T16:52:34.216Z,24.70
2022-12-11T16:55:01.909Z,24.70
2022-12-11T16:57:29.528Z,24.60
2022-12-11T16:59:57.103Z,24.60
2022-12-11T17:02:26.639Z,24.60
2022-12-11T17:04:54.335Z,24.60
2022-12-11T17:07:21.959Z,24.50
2022-12-11T17:09:50.888Z,24.50
2022-12-11T17:12:18.445Z,24.50
2022-12-11T17:14:47.765Z,24.40
2022-12-11T17:17:15.323Z,24.40
2022-12-11T17:19:42.917Z,24.40
2022-12-11T17:22:10.697Z,24.30
2022-12-11T17:24:39.308Z,24.30
2022-12-11T17:27:06.835Z,24.30
2022-12-11T17:29:34.451Z,24.20
2022-12-11T17:32:04.269Z,24.20
2022-12-11T17:34:37.907Z,24.10
2022-12-11T17:37:06.593Z,24.10
2022-12-11T17:39:34.928Z,24.10
2022-12-11T17:42:02.699Z,24.10
2022-12-11T17:44:31.375Z,24.00
2022-12-11T17:46:59.949Z,24.00
2022-12-11T17:49:28.233Z,24.00
2022-12-11T17:51:56.128Z,23.90
2022-12-11T17:54:25.064Z,23.90
2022-12-11T17:56:52.610Z,23.90
2022-12-11T17:59:20.537Z,23.90
2022-12-11T18:01:48.078Z,23.90
2022-12-11T18:04:15.642Z,23.80
2022-12-11T18:06:43.985Z,23.80
2022-12-11T18:09:12.370Z,23.80
2022-12-11T18:11:41.396Z,23.80
2022-12-11T18:14:13.717Z,23.70
2022-12-11T18:16:44.332Z,23.70
2022-12-11T18:19:11.875Z,23.60
2022-12-11T18:21:42.915Z,23.60
2022-12-11T18:24:10.896Z,23.60
2022-12-11T18:26:40.804Z,23.60
2022-12-11T18:29:08.586Z,23.60
2022-12-11T18:31:41.976Z,23.50
2022-12-11T18:34:10.665Z,23.50
2022-12-11T18:36:38.227Z,23.50
2022-12-11T18:39:05.764Z,23.50
2022-12-11T18:41:34.086Z,23.50
2022-12-11T18:44:09.269Z,23.40
2022-12-11T18:46:38.515Z,23.40
2022-12-11T18:49:06.902Z,23.40
2022-12-11T18:51:34.481Z,23.30
2022-12-11T18:54:02.018Z,23.30
2022-12-11T18:56:29.558Z,23.30
2022-12-11T18:58:57.053Z,23.20
2022-12-11T19:01:26.266Z,23.20
2022-12-11T19:03:58.918Z,23.20
2022-12-11T19:06:31.510Z,23.20
2022-12-11T19:08:59.246Z,23.10
2022-12-11T19:11:27.937Z,23.10
2022-12-11T19:13:59.935Z,23.10
2022-12-11T19:16:35.150Z,23.10
2022-12-11T19:19:10.160Z,23.10
2022-12-11T19:21:40.800Z,23.00
2022-12-11T19:24:10.431Z,23.00
2022-12-11T19:26:38.737Z,23.00
2022-12-11T19:29:07.333Z,23.00
2022-12-11T19:31:36.047Z,23.00
2022-12-11T19:34:03.647Z,23.00
2022-12-11T19:36:32.012Z,23.00
2022-12-11T19:39:01.899Z,22.90
2022-12-11T19:41:30.436Z,22.90
2022-12-11T19:43:58.717Z,22.90
2022-12-11T19:46:26.852Z,22.90
2022-12-11T19:48:55.924Z,22.90
2022-12-11T19:51:25.484Z,22.80
2022-12-11T19:53:53.544Z,22.80
2022-12-11T19:56:21.416Z,22.80
2022-12-11T19:58:49.855Z,22.70
2022-12-11T20:01:25.132Z,22.70
2022-12-11T20:03:55.669Z,22.70
2022-12-11T20:06:23.687Z,22.70
2022-12-11T20:08:52.101Z,22.70
2022-12-11T20:11:19.978Z,22.70
2022-12-11T20:13:48.271Z,22.70
2022-12-11T20:16:16.479Z,22.70
2022-12-11T20:18:44.315Z,22.70
2022-12-11T20:21:16.272Z,22.70
2022-12-11T20:23:44.314Z,22.70
2022-12-11T20:26:20.013Z,22.70
2022-12-11T20:28:51.210Z,22.60
2022-12-11T20:31:23.446Z,22.60
2022-12-11T20:33:53.137Z,22.60
2022-12-11T20:36:21.876Z,22.60
2022-12-11T20:38:49.520Z,22.50
2022-12-11T20:41:19.162Z,22.60
2022-12-11T20:43:46.897Z,22.60
2022-12-11T20:46:15.354Z,22.60
2022-12-11T20:48:43.906Z,22.50
2022-12-11T20:51:12.378Z,22.50
2022-12-11T20:53:40.377Z,22.50
2022-12-11T20:56:12.925Z,22.50
2022-12-11T20:58:40.815Z,22.50
2022-12-11T21:01:08.850Z,22.50
2022-12-11T21:03:41.863Z,22.50
2022-12-11T21:06:17.421Z,22.40
2022-12-11T21:08:44.928Z,22.40
2022-12-11T21:11:12.716Z,22.40
2022-12-11T21:13:40.374Z,22.30
2022-12-11T21:16:08.604Z,22.30
2022-12-11T21:18:36.666Z,22.20
2022-12-11T21:21:05.165Z,22.20
2022-12-11T21:23:33.054Z,22.20
2022-12-11T21:26:00.608Z,22.20
2022-12-11T21:28:35.001Z,22.10
2022-12-11T21:31:04.840Z,22.20
2022-12-11T21:33:32.404Z,22.20
2022-12-11T21:36:00.413Z,22.20
2022-12-11T21:38:28.653Z,22.10
2022-12-11T21:40:56.636Z,22.20
2022-12-11T21:43:25.085Z,22.10
2022-12-11T21:46:00.999Z,22.10
2022-12-11T21:48:29.265Z,22.10
2022-12-11T21:51:04.470Z,22.10
2022-12-11T21:53:31.960Z,22.00
2022-12-11T21:55:59.498Z,22.00
2022-12-11T21:58:27.051Z,22.00
2022-12-11T22:00:54.559Z,22.00
2022-12-11T22:03:22.073Z,22.00
2022-12-11T22:05:49.616Z,21.90
2022-12-11T22:08:17.203Z,21.90
2022-12-11T22:10:44.730Z,21.90
2022-12-11T22:13:12.280Z,21.90
2022-12-11T22:15:39.800Z,21.90
2022-12-11T22:18:07.475Z,21.80
2022-12-11T22:20:34.955Z,21.80
2022-12-11T22:23:02.555Z,21.70
2022-12-11T22:25:30.142Z,21.70
2022-12-11T22:27:57.632Z,21.70
2022-12-11T22:30:25.382Z,21.70
2022-12-11T22:32:52.906Z,21.60
2022-12-11T22:35:26.849Z,21.60
2022-12-11T22:37:54.814Z,21.60
2022-12-11T22:40:22.683Z,21.60
2022-12-11T22:42:50.401Z,21.60
2022-12-11T22:45:18.125Z,21.50
2022-12-11T22:47:45.737Z,21.50
2022-12-11T22:50:14.550Z,21.50
2022-12-11T22:52:42.458Z,21.40
2022-12-11T22:55:10.419Z,21.40
2022-12-11T22:57:38.637Z,21.40
2022-12-11T23:02:34.282Z,21.40
2022-12-11T23:05:01.837Z,21.40
2022-12-11T23:07:29.759Z,21.40
2022-12-11T23:09:57.311Z,21.30
2022-12-11T23:12:24.879Z,21.40
2022-12-11T23:14:52.427Z,21.40
2022-12-11T23:17:19.992Z,21.40
2022-12-11T23:19:47.705Z,21.40
2022-12-11T23:22:15.266Z,21.40
2022-12-11T23:24:42.830Z,21.40
2022-12-11T23:27:10.782Z,21.40
2022-12-11T23:29:39.147Z,21.40
2022-12-11T23:32:06.921Z,21.40
2022-12-11T23:34:34.535Z,21.40
2022-12-11T23:37:02.324Z,21.30
2022-12-11T23:39:29.904Z,21.30
2022-12-11T23:41:58.194Z,21.30
2022-12-11T23:44:25.687Z,21.30
2022-12-11T23:46:53.525Z,21.40
2022-12-11T23:49:21.026Z,21.30
2022-12-11T23:51:48.517Z,21.40
2022-12-11T23:54:16.118Z,21.40
2022-12-11T23:56:43.633Z,21.30
2022-12-11T23:59:15.059Z,21.40
